Time;durP1;ratioP1;P1;durP2;ratioP2;P2;SDS_P1;SDS_P2;PMS_P1;PMS_P2;Temp;Humidity;BMP_temperature;BMP_pressure;BME280_temperature;BME280_humidity;BME280_pressure;Samples;Min_cycle;Max_cycle;Signal;HPM_P1;HPM_P2
2023/03/24 00:00:15;;;;;;;;;;;;;;;16.13;50.95;101002.22;4997328;28;1104;-51
2023/03/24 00:02:41;;;;;;;;;;;;;;;16.95;48.76;101002.59;4997144;28;1044;-49
2023/03/24 00:05:08;;;;;;;;;;;;;;;15.90;51.17;100998.78;4997781;28;1074;-46
2023/03/24 00:07:37;;;;;;;;;;;;;;;15.53;52.07;101000.38;4996546;28;923;-49
2023/03/24 00:10:03;;;;;;;;;;;;;;;15.29;52.43;100996.31;4997461;28;1123;-49
2023/03/24 00:12:29;;;;;;;;;;;;;;;15.13;52.98;100995.34;4997227;28;1032;-46
2023/03/24 00:14:54;;;;;;;;;;;;;;;16.58;49.49;100989.84;4996819;28;1112;-47
2023/03/24 00:17:24;;;;;;;;;;;;;;;16.45;49.82;100993.06;4997006;28;1980;-51
2023/03/24 00:19:50;;;;;;;;;;;;;;;15.69;51.58;100997.78;4996604;28;873;-46
2023/03/24 00:22:15;;;;;;;;;;;;;;;15.36;52.57;100994.19;4997471;28;1148;-45
2023/03/24 00:24:45;;;;;;;;;;;;;;;15.22;52.81;100991.03;4997007;28;1117;-45
2023/03/24 00:27:12;;;;;;;;;;;;;;;15.88;51.39;100998.22;4997140;28;1200;-46
2023/03/24 00:29:39;;;;;;;;;;;;;;;16.98;48.56;100998.50;4996693;28;1111;-48
2023/03/24 00:32:05;;;;;;;;;;;;;;;15.91;51.03;101000.44;4995505;28;1071;-46
2023/03/24 00:34:30;;;;;;;;;;;;;;;15.48;52.35;100994.03;4996495;28;1048;-47
2023/03/24 00:36:56;;;;;;;;;;;;;;;15.26;52.63;100983.97;4996671;28;1894;-48
2023/03/24 00:39:21;;;;;;;;;;;;;;;15.11;52.80;100989.28;4995552;28;1254;-45
2023/03/24 00:41:47;;;;;;;;;;;;;;;16.58;49.76;100982.41;4996536;28;1200;-49
2023/03/24 00:44:19;;;;;;;;;;;;;;;16.66;49.12;100988.47;4995322;28;1639;-43
2023/03/24 00:46:45;;;;;;;;;;;;;;;15.79;51.39;100980.56;4984256;28;1053;-46
2023/03/24 00:49:11;;;;;;;;;;;;;;;15.44;52.46;100985.50;4996937;28;1092;-46
2023/03/24 00:51:40;;;;;;;;;;;;;;;15.28;52.58;100976.31;4982336;28;1297;-46
2023/03/24 00:54:08;;;;;;;;;;;;;;;15.63;52.16;100977.72;4995907;28;1052;-48
2023/03/24 00:56:34;;;;;;;;;;;;;;;16.87;48.61;100972.88;4996734;28;1975;-47
2023/03/24 00:59:00;;;;;;;;;;;;;;;15.85;51.29;100972.16;4996986;28;1124;-47
2023/03/24 01:01:28;;;;;;;;;;;;;;;15.43;52.24;100972.06;4996482;28;1041;-49
2023/03/24 01:03:55;;;;;;;;;;;;;;;15.20;52.73;100965.84;4996586;28;1152;-50
2023/03/24 01:06:21;;;;;;;;;;;;;;;15.97;51.35;100963.72;4996159;28;1088;-47
2023/03/24 01:08:48;;;;;;;;;;;;;;;16.88;48.79;100964.41;4996328;28;1052;-48
2023/03/24 01:11:15;;;;;;;;;;;;;;;15.84;51.16;100966.94;4997040;28;1123;-48
2023/03/24 01:13:41;;;;;;;;;;;;;;;15.43;52.17;100966.56;4996374;28;1203;-49
2023/03/24 01:16:06;;;;;;;;;;;;;;;15.22;52.76;100966.38;4994878;28;1906;-50
2023/03/24 01:18:33;;;;;;;;;;;;;;;15.31;52.72;100964.84;4996158;28;1127;-49
2023/03/24 01:21:00;;;;;;;;;;;;;;;16.86;48.75;100961.09;4996757;28;1136;-49
2023/03/24 01:23:25;;;;;;;;;;;;;;;16.27;50.22;100961.41;4996211;28;1040;-49
2023/03/24 01:25:51;;;;;;;;;;;;;;;15.59;51.75;100964.81;4994881;28;1212;-49
2023/03/24 01:28:20;;;;;;;;;;;;;;;15.32;52.47;100968.38;4996022;28;1206;-49
2023/03/24 01:30:46;;;;;;;;;;;;;;;15.12;52.85;100960.81;4995994;28;1121;-49
2023/03/24 01:33:11;;;;;;;;;;;;;;;15.85;51.58;100963.09;4996501;28;1227;-48
2023/03/24 01:35:37;;;;;;;;;;;;;;;16.76;48.75;100972.88;4996156;28;1156;-50
2023/03/24 01:38:06;;;;;;;;;;;;;;;15.81;51.48;100967.44;4995980;28;1930;-49
2023/03/24 01:40:32;;;;;;;;;;;;;;;15.37;52.23;100969.25;4996381;28;1045;-49
2023/03/24 01:42:58;;;;;;;;;;;;;;;15.16;52.78;100967.44;4996039;28;1080;-49
2023/03/24 01:45:53;;;;;;;;;;;;;;;15.82;51.41;100969.09;4996037;28;1266;-45
2023/03/24 01:48:30;;;;;;;;;;;;;;;16.81;48.54;100965.75;4981407;28;1896;-49
2023/03/24 01:51:11;;;;;;;;;;;;;;;15.76;51.45;100959.97;5011439;28;1146;-48
2023/03/24 01:53:37;;;;;;;;;;;;;;;15.35;52.20;100967.91;5011243;28;1143;-51
2023/03/24 01:56:03;;;;;;;;;;;;;;;15.18;52.72;100962.50;4978158;28;1984;-51
2023/03/24 01:58:33;;;;;;;;;;;;;;;16.07;50.88;100965.69;4979285;28;1209;-49
2023/03/24 02:01:16;;;;;;;;;;;;;;;16.80;48.73;100970.38;4981109;28;1229;-47
2023/03/24 02:03:55;;;;;;;;;;;;;;;15.78;51.43;100973.44;4996879;28;1433;-51
2023/03/24 02:06:24;;;;;;;;;;;;;;;15.39;52.07;100969.03;4997631;28;1135;-47
2023/03/24 02:08:52;;;;;;;;;;;;;;;15.16;52.70;100968.25;4998341;28;1274;-47
2023/03/24 02:11:19;;;;;;;;;;;;;;;15.44;52.21;100968.25;4998548;28;1543;-51
2023/03/24 02:13:52;;;;;;;;;;;;;;;16.96;48.57;100968.56;5013510;28;1419;-51
2023/03/24 02:16:21;;;;;;;;;;;;;;;16.12;50.29;100970.38;4998350;28;1914;-47
2023/03/24 02:19:02;;;;;;;;;;;;;;;15.55;51.99;100973.53;4997620;28;1550;-47
2023/03/24 02:21:36;;;;;;;;;;;;;;;15.22;52.72;100971.88;4997758;28;1259;-48
2023/03/24 02:24:14;;;;;;;;;;;;;;;15.14;52.87;100980.56;5001784;28;1174;-51
2023/03/24 02:26:49;;;;;;;;;;;;;;;16.82;48.80;100983.88;4998186;28;1937;-51
2023/03/24 02:29:15;;;;;;;;;;;;;;;16.36;49.59;100987.25;4998646;28;1438;-51
2023/03/24 02:31:45;;;;;;;;;;;;;;;15.64;51.46;100997.72;4997540;28;1151;-47
2023/03/24 02:34:23;;;;;;;;;;;;;;;15.32;52.02;100988.41;5014163;28;1220;-48
2023/03/24 02:37:28;;;;;;;;;;;;;;;15.15;52.52;100987.69;4997538;28;1906;-47
2023/03/24 02:40:18;;;;;;;;;;;;;;;16.37;49.84;100994.41;4996694;28;1325;-52
2023/03/24 02:42:50;;;;;;;;;;;;;;;16.81;48.50;101002.25;4980458;28;1120;-50
2023/03/24 02:45:15;;;;;;;;;;;;;;;15.84;50.90;101010.81;4997943;28;1229;-48
2023/03/24 02:47:50;;;;;;;;;;;;;;;15.44;51.94;101006.59;4997464;28;1099;-47
2023/03/24 02:50:16;;;;;;;;;;;;;;;15.22;52.11;100999.25;4998974;28;1092;-51
2023/03/24 02:52:45;;;;;;;;;;;;;;;15.34;52.44;101007.34;4997300;28;1125;-47
2023/03/24 02:55:11;;;;;;;;;;;;;;;16.92;48.57;101005.91;5030446;28;1139;-48
2023/03/24 02:57:52;;;;;;;;;;;;;;;16.23;49.96;101007.78;4996953;28;1902;-51
2023/03/24 03:01:01;;;;;;;;;;;;;;;15.55;51.80;101002.84;4997600;28;1194;-49
2023/03/24 03:03:49;;;;;;;;;;;;;;;15.22;52.34;101004.72;5024640;28;1124;-46
2023/03/24 03:06:30;;;;;;;;;;;;;;;16.35;49.87;101005.63;5013374;28;1158;-46
2023/03/24 03:08:56;;;;;;;;;;;;;;;16.37;49.75;101014.44;5016688;28;1135;-49
2023/03/24 03:11:21;;;;;;;;;;;;;;;15.63;51.53;101015.28;5030380;28;1191;-46
2023/03/24 03:13:52;;;;;;;;;;;;;;;15.32;52.28;101009.50;5013163;28;1596;-49
2023/03/24 03:16:44;;;;;;;;;;;;;;;15.11;52.44;101013.94;5029244;28;1969;-50
2023/03/24 03:19:16;;;;;;;;;;;;;;;15.94;51.03;101010.88;4983610;28;1119;-48
2023/03/24 03:21:45;;;;;;;;;;;;;;;16.99;48.12;101008.41;4980835;28;1124;-46
2023/03/24 03:24:14;;;;;;;;;;;;;;;15.92;50.90;101002.06;5030341;28;1286;-46
2023/03/24 03:26:40;;;;;;;;;;;;;;;15.47;51.62;100995.13;5029640;28;1184;-48
2023/03/24 03:29:10;;;;;;;;;;;;;;;15.21;52.22;100989.41;4997907;28;1192;-46
2023/03/24 03:31:40;;;;;;;;;;;;;;;15.60;51.88;100994.69;5029076;28;1172;-47
2023/03/24 03:34:27;;;;;;;;;;;;;;;17.07;48.00;100989.47;4996858;28;1231;-50
2023/03/24 03:36:58;;;;;;;;;;;;;;;16.18;49.93;100988.53;4977723;28;1981;-44
2023/03/24 03:39:27;;;;;;;;;;;;;;;15.62;51.50;100981.53;4997858;28;1052;-49
2023/03/24 03:41:53;;;;;;;;;;;;;;;15.31;52.19;100972.25;5012853;28;1163;-49
2023/03/24 03:44:19;;;;;;;;;;;;;;;15.64;51.75;100967.56;4996066;28;1113;-47
2023/03/24 03:46:44;;;;;;;;;;;;;;;17.07;48.03;100967.47;4997958;28;1151;-47
2023/03/24 03:49:16;;;;;;;;;;;;;;;16.06;50.23;100969.53;5012114;28;1112;-48
2023/03/24 03:51:41;;;;;;;;;;;;;;;15.61;51.60;100976.31;4997605;28;1060;-46
2023/03/24 03:54:07;;;;;;;;;;;;;;;15.31;52.02;100970.31;4997344;28;1033;-50
2023/03/24 03:56:34;;;;;;;;;;;;;;;15.13;52.45;100973.44;5004742;28;1906;-49
2023/03/24 03:59:24;;;;;;;;;;;;;;;15.32;52.21;100977.47;4994639;28;1100;-49
2023/03/24 04:01:50;;;;;;;;;;;;;;;16.89;48.47;100976.22;4995967;28;1180;-49
2023/03/24 04:04:39;;;;;;;;;;;;;;;16.15;49.89;100976.16;4995879;28;1246;-48
2023/03/24 04:07:30;;;;;;;;;;;;;;;15.50;51.73;100968.03;4994076;28;1084;-48
2023/03/24 04:10:25;;;;;;;;;;;;;;;15.19;52.38;100965.00;5016145;28;1358;-48
2023/03/24 04:13:10;;;;;;;;;;;;;;;16.69;49.01;100964.06;4968898;28;1369;-46
2023/03/24 04:16:16;;;;;;;;;;;;;;;15.94;50.78;100975.22;4989857;28;1070;-52
2023/03/24 04:19:11;;;;;;;;;;;;;;;15.40;51.74;100978.88;4995527;28;1242;-47
2023/03/24 04:21:47;;;;;;;;;;;;;;;15.14;52.31;100981.41;4994950;28;1218;-59
2023/03/24 04:24:26;;;;;;;;;;;;;;;16.58;49.10;100976.91;4996527;28;1740;-54
2023/03/24 04:27:08;;;;;;;;;;;;;;;16.18;50.04;100989.34;4994663;28;1272;-59
2023/03/24 04:29:35;;;;;;;;;;;;;;;15.52;51.45;100986.94;4995070;28;1353;-54
2023/03/24 04:32:01;;;;;;;;;;;;;;;15.26;52.12;100986.69;4995158;28;1281;-58
2023/03/24 04:34:27;;;;;;;;;;;;;;;15.08;52.52;100987.06;4996231;28;1124;-53
2023/03/24 04:36:55;;;;;;;;;;;;;;;16.57;49.24;100985.44;4995655;28;1973;-59
2023/03/24 04:39:42;;;;;;;;;;;;;;;16.63;48.54;100995.31;4986577;28;1364;-57
2023/03/24 04:42:14;;;;;;;;;;;;;;;15.80;50.88;100993.22;4979775;28;1324;-56
2023/03/24 04:44:40;;;;;;;;;;;;;;;15.46;51.59;100993.44;5011617;28;1249;-58
2023/03/24 04:47:30;;;;;;;;;;;;;;;15.19;52.17;100988.81;5020824;28;1382;-58
2023/03/24 04:50:10;;;;;;;;;;;;;;;15.57;51.53;101001.53;5010065;28;1158;-58
2023/03/24 04:52:40;;;;;;;;;;;;;;;17.02;47.97;100997.69;4995136;28;1254;-56
2023/03/24 04:55:17;;;;;;;;;;;;;;;16.07;49.95;101007.69;4987257;28;1417;-51
2023/03/24 04:57:43;;;;;;;;;;;;;;;15.53;51.36;101003.13;5008453;28;1975;-54
2023/03/24 05:00:09;;;;;;;;;;;;;;;15.24;52.07;101008.06;4995539;28;1155;-61
2023/03/24 05:02:35;;;;;;;;;;;;;;;15.11;52.43;101013.94;4995452;28;1173;-56
2023/03/24 05:05:08;;;;;;;;;;;;;;;16.36;49.53;101015.53;4989952;28;1233;-56
2023/03/24 05:07:41;;;;;;;;;;;;;;;16.56;48.90;101012.06;5010253;28;1346;-58
2023/03/24 05:10:10;;;;;;;;;;;;;;;15.70;50.98;101005.72;4995335;28;1234;-56
2023/03/24 05:12:43;;;;;;;;;;;;;;;15.36;51.77;101011.47;5010574;28;1235;-57
2023/03/24 05:15:27;;;;;;;;;;;;;;;15.17;52.29;101023.88;4992469;28;1119;-55
2023/03/24 05:18:15;;;;;;;;;;;;;;;16.48;49.45;101022.72;4981348;28;1918;-58
2023/03/24 05:20:41;;;;;;;;;;;;;;;16.58;48.83;101028.28;4992599;28;1126;-58
2023/03/24 05:23:15;;;;;;;;;;;;;;;15.69;51.05;101028.75;4994996;28;1350;-58
2023/03/24 05:25:42;;;;;;;;;;;;;;;15.38;51.91;101033.94;4994035;28;1523;-53
2023/03/24 05:28:08;;;;;;;;;;;;;;;15.16;52.35;101038.66;5019868;28;1349;-53
2023/03/24 05:30:34;;;;;;;;;;;;;;;16.02;50.63;101047.94;4995221;28;1167;-54
2023/03/24 05:33:09;;;;;;;;;;;;;;;16.95;47.77;101049.31;4985938;28;1401;-54
2023/03/24 05:35:35;;;;;;;;;;;;;;;15.89;50.41;101035.50;4996832;28;1188;-55
2023/03/24 05:38:00;;;;;;;;;;;;;;;15.52;51.33;101050.81;4988979;28;1981;-54
2023/03/24 05:40:26;;;;;;;;;;;;;;;15.24;52.31;101049.16;4998736;28;1398;-56
2023/03/24 05:42:56;;;;;;;;;;;;;;;15.40;51.98;101048.22;4998413;28;1338;-56
2023/03/24 05:45:24;;;;;;;;;;;;;;;16.94;47.91;101053.13;4997988;28;1318;-56
2023/03/24 05:47:50;;;;;;;;;;;;;;;16.20;49.64;101043.94;5031595;28;1136;-58
2023/03/24 05:50:22;;;;;;;;;;;;;;;15.55;51.36;101053.00;4998799;28;1135;-56
2023/03/24 05:52:49;;;;;;;;;;;;;;;15.29;52.00;101053.84;5031593;28;1151;-56
2023/03/24 05:55:44;;;;;;;;;;;;;;;15.33;52.19;101055.00;4990548;28;1625;-49
2023/03/24 05:58:33;;;;;;;;;;;;;;;17.01;47.87;101056.50;5000023;28;1967;-51
2023/03/24 06:00:58;;;;;;;;;;;;;;;16.05;49.95;101056.47;4998161;28;1547;-57
2023/03/24 06:03:33;;;;;;;;;;;;;;;15.62;51.33;101054.72;5030684;28;1342;-55
2023/03/24 06:06:07;;;;;;;;;;;;;;;15.32;51.80;101054.16;4998671;28;1218;-55
2023/03/24 06:08:32;;;;;;;;;;;;;;;15.17;52.25;101057.56;5028769;28;1373;-54
2023/03/24 06:11:02;;;;;;;;;;;;;;;16.93;48.72;101059.75;4998394;28;1135;-57
2023/03/24 06:13:29;;;;;;;;;;;;;;;15.87;50.50;101060.44;4998471;28;1306;-57
2023/03/24 06:15:57;;;;;;;;;;;;;;;16.89;49.04;101066.88;4998646;28;1291;-56
2023/03/24 06:18:34;;;;;;;;;;;;;;;16.69;49.37;101054.69;4998183;28;1985;-55
2023/03/24 06:21:09;;;;;;;;;;;;;;;15.72;50.26;101057.56;4998452;28;1384;-58
2023/03/24 06:23:35;;;;;;;;;;;;;;;15.54;48.96;101047.78;4998022;28;1233;-58
2023/03/24 06:26:07;;;;;;;;;;;;;;;16.64;49.17;101046.41;4998280;28;1444;-56
2023/03/24 06:28:33;;;;;;;;;;;;;;;15.78;50.26;101050.19;5011135;28;1255;-58
2023/03/24 06:31:03;;;;;;;;;;;;;;;16.30;50.08;101055.00;4978857;28;1304;-55
2023/03/24 06:33:33;;;;;;;;;;;;;;;16.13;50.32;101048.84;4989390;28;1216;-54
2023/03/24 06:36:00;;;;;;;;;;;;;;;16.37;50.44;101049.31;4998055;28;1193;-58
2023/03/24 06:38:27;;;;;;;;;;;;;;;17.48;47.54;101048.34;4997875;28;1989;-57
2023/03/24 06:40:53;;;;;;;;;;;;;;;16.25;49.37;101049.47;4997711;28;1532;-57
2023/03/24 06:43:19;;;;;;;;;;;;;;;16.71;49.56;101046.97;4991902;28;1553;-62
2023/03/24 06:45:44;;;;;;;;;;;;;;;16.62;49.27;101047.75;4997692;28;1256;-59
2023/03/24 06:48:16;;;;;;;;;;;;;;;16.73;49.83;101044.81;4997680;28;1200;-60
2023/03/24 06:50:43;;;;;;;;;;;;;;;18.04;46.50;101042.88;4997621;28;1267;-57
2023/03/24 06:53:09;;;;;;;;;;;;;;;16.63;48.99;101043.94;4998215;28;1322;-52
2023/03/24 06:55:36;;;;;;;;;;;;;;;16.22;48.64;101042.59;4997812;28;1186;-60
2023/03/24 06:58:03;;;;;;;;;;;;;;;15.94;48.43;101049.28;4997558;28;1910;-58
2023/03/24 07:00:34;;;;;;;;;;;;;;;17.37;48.28;101042.00;4999091;28;1101;-56
2023/03/24 07:03:23;;;;;;;;;;;;;;;16.19;49.77;101042.31;4990722;28;1382;-60
2023/03/24 07:06:08;;;;;;;;;;;;;;;15.96;48.62;101047.06;4986499;28;939;-57
2023/03/24 07:08:34;;;;;;;;;;;;;;;16.30;49.71;101046.78;5008201;28;1294;-58
2023/03/24 07:11:01;;;;;;;;;;;;;;;16.42;49.60;101043.81;5013595;28;1306;-59
2023/03/24 07:13:27;;;;;;;;;;;;;;;15.91;49.58;101044.31;4997582;28;1332;-59
2023/03/24 07:16:00;;;;;;;;;;;;;;;16.65;49.67;101048.06;4997447;28;1358;-63
2023/03/24 07:18:26;;;;;;;;;;;;;;;16.31;49.75;101045.66;4997098;28;2010;-62
2023/03/24 07:20:57;;;;;;;;;;;;;;;17.37;48.29;101045.56;4998546;28;1121;-61
2023/03/24 07:23:24;;;;;;;;;;;;;;;18.06;46.68;101051.69;4995915;28;1151;-54
2023/03/24 07:25:52;;;;;;;;;;;;;;;16.71;48.66;101049.72;4998375;28;934;-58
2023/03/24 07:28:32;;;;;;;;;;;;;;;16.81;49.38;101042.63;5008390;28;1142;-58
2023/03/24 07:31:00;;;;;;;;;;;;;;;16.51;49.29;101035.91;4997737;28;1261;-60
2023/03/24 07:33:26;;;;;;;;;;;;;;;16.24;49.03;101032.22;4997110;28;1304;-59
2023/03/24 07:35:56;;;;;;;;;;;;;;;17.45;47.80;101039.53;4997259;28;1426;-61
2023/03/24 07:38:22;;;;;;;;;;;;;;;16.39;49.25;101045.16;4990250;28;1910;-58
2023/03/24 07:40:50;;;;;;;;;;;;;;;16.23;48.16;101029.72;4996599;28;1327;-59
2023/03/24 07:43:16;;;;;;;;;;;;;;;16.42;48.93;101039.16;4997302;28;1296;-57
2023/03/24 07:45:43;;;;;;;;;;;;;;;16.75;48.92;101039.88;4994605;28;1255;-56
2023/03/24 07:48:08;;;;;;;;;;;;;;;17.33;48.61;101035.41;4995982;28;1121;-60
2023/03/24 07:50:35;;;;;;;;;;;;;;;18.63;45.59;101035.88;5021044;28;1514;-59
2023/03/24 07:53:08;;;;;;;;;;;;;;;17.03;48.71;101037.81;4996904;28;1264;-58
2023/03/24 07:55:36;;;;;;;;;;;;;;;16.52;48.51;101032.06;4996252;28;1478;-56
2023/03/24 07:58:08;;;;;;;;;;;;;;;17.57;48.16;101036.53;4985877;28;1910;-58
2023/03/24 08:00:37;;;;;;;;;;;;;;;16.66;48.88;101037.91;4993460;28;1637;-59
2023/03/24 08:03:24;;;;;;;;;;;;;;;16.30;48.23;101041.28;5022717;28;1226;-58
2023/03/24 08:06:08;;;;;;;;;;;;;;;16.08;47.92;101035.94;4982554;28;1270;-59
2023/03/24 08:08:49;;;;;;;;;;;;;;;17.20;48.19;101037.56;4992823;28;1029;-58
2023/03/24 08:11:14;;;;;;;;;;;;;;;16.32;49.40;101028.13;4983952;28;1085;-57
2023/03/24 08:13:40;;;;;;;;;;;;;;;17.23;48.45;101027.97;4997607;28;1239;-51
2023/03/24 08:16:05;;;;;;;;;;;;;;;17.16;48.65;101033.72;4997393;28;1236;-53
2023/03/24 08:18:33;;;;;;;;;;;;;;;16.50;48.88;101040.56;4997239;28;2221;-59
2023/03/24 08:21:00;;;;;;;;;;;;;;;16.23;48.22;101035.22;4997672;28;1318;-62
2023/03/24 08:23:26;;;;;;;;;;;;;;;16.94;48.64;101033.91;4996975;28;1129;-58
2023/03/24 08:25:51;;;;;;;;;;;;;;;16.77;49.42;101032.19;4984713;28;1192;-59
2023/03/24 08:28:17;;;;;;;;;;;;;;;18.45;46.28;101022.69;4997826;28;1287;-61
2023/03/24 08:30:43;;;;;;;;;;;;;;;17.56;47.84;101028.56;4996980;28;1212;-57
2023/03/24 08:33:10;;;;;;;;;;;;;;;16.86;48.46;101021.50;4997594;28;1219;-59
2023/03/24 08:35:38;;;;;;;;;;;;;;;16.57;48.05;101015.63;4997147;28;1082;-60
2023/03/24 08:38:04;;;;;;;;;;;;;;;16.40;47.60;101013.09;5012384;28;1898;-58
2023/03/24 08:40:30;;;;;;;;;;;;;;;16.84;48.61;101006.38;4997179;28;1228;-60
2023/03/24 08:42:57;;;;;;;;;;;;;;;16.69;48.93;101007.16;4998125;28;1191;-59
2023/03/24 08:45:23;;;;;;;;;;;;;;;16.30;48.51;101011.09;4997172;28;1240;-58
2023/03/24 08:47:50;;;;;;;;;;;;;;;17.42;48.19;101009.84;4997197;28;1128;-48
2023/03/24 08:50:16;;;;;;;;;;;;;;;16.51;49.08;101016.69;4997153;28;1108;-51
2023/03/24 08:52:42;;;;;;;;;;;;;;;16.28;48.17;101012.47;4997386;28;1240;-57
2023/03/24 08:55:08;;;;;;;;;;;;;;;17.45;47.89;101012.03;4996987;28;1259;-56
2023/03/24 08:57:34;;;;;;;;;;;;;;;16.59;49.06;101010.69;4996159;28;1902;-52
2023/03/24 09:00:00;;;;;;;;;;;;;;;16.20;48.76;101013.78;4997167;28;1243;-58
2023/03/24 09:02:26;;;;;;;;;;;;;;;17.18;48.08;101017.78;4989000;28;1042;-58
2023/03/24 09:04:53;;;;;;;;;;;;;;;16.38;48.96;101021.59;4997348;28;1318;-57
2023/03/24 09:07:19;;;;;;;;;;;;;;;17.23;48.52;101014.22;4997192;28;1200;-58
2023/03/24 09:09:44;;;;;;;;;;;;;;;17.04;48.48;101017.47;4996618;28;1240;-50
2023/03/24 09:12:10;;;;;;;;;;;;;;;16.39;48.93;101017.72;4996830;28;1294;-47
2023/03/24 09:14:35;;;;;;;;;;;;;;;16.39;48.12;101012.22;4996755;28;1236;-55
2023/03/24 09:17:01;;;;;;;;;;;;;;;17.39;48.29;101006.81;4984488;28;1902;-56
2023/03/24 09:19:27;;;;;;;;;;;;;;;16.57;49.04;101001.91;4995951;28;1310;-57
2023/03/24 09:21:53;;;;;;;;;;;;;;;16.29;48.25;100998.47;4996266;28;1263;-57
2023/03/24 09:24:18;;;;;;;;;;;;;;;17.05;48.50;101002.63;4996348;28;1123;-57
2023/03/24 09:26:44;;;;;;;;;;;;;;;16.56;49.02;101005.72;4997017;28;1188;-57
2023/03/24 09:29:09;;;;;;;;;;;;;;;16.23;48.45;100992.13;4997412;28;1081;-57
2023/03/24 09:31:35;;;;;;;;;;;;;;;17.12;48.11;100993.31;4996683;28;1191;-57
2023/03/24 09:34:02;;;;;;;;;;;;;;;16.39;48.46;100982.03;4996472;28;1140;-57
2023/03/24 09:36:27;;;;;;;;;;;;;;;16.68;48.74;100992.59;4996537;28;1902;-57
2023/03/24 09:38:53;;;;;;;;;;;;;;;16.75;48.58;100989.63;4996494;28;1164;-57
2023/03/24 09:41:21;;;;;;;;;;;;;;;16.29;48.66;100983.94;4995459;28;1060;-58
2023/03/24 09:43:46;;;;;;;;;;;;;;;17.39;47.85;100977.41;4996410;28;1093;-57
2023/03/24 09:46:26;;;;;;;;;;;;;;;16.42;48.82;100981.53;4995839;28;1041;-59
2023/03/24 09:48:52;;;;;;;;;;;;;;;16.24;48.32;100988.31;4996582;28;1181;-58
2023/03/24 09:51:21;;;;;;;;;;;;;;;15.98;47.79;100987.31;5028022;28;1124;-56
2023/03/24 09:54:00;;;;;;;;;;;;;;;17.49;47.63;100978.50;4993833;28;1307;-57
2023/03/24 09:56:28;;;;;;;;;;;;;;;16.43;48.91;100980.41;4995066;28;1902;-57
2023/03/24 09:58:59;;;;;;;;;;;;;;;16.20;48.24;100975.38;4993312;28;1336;-47
2023/03/24 10:01:25;;;;;;;;;;;;;;;17.37;47.98;100976.03;4996501;28;906;-52
2023/03/24 10:03:51;;;;;;;;;;;;;;;16.52;48.93;100966.19;5027572;28;1134;-51
2023/03/24 10:06:24;;;;;;;;;;;;;;;16.16;48.71;100963.25;4996684;28;1168;-50
2023/03/24 10:08:57;;;;;;;;;;;;;;;16.63;48.83;100965.13;4996540;28;927;-48
2023/03/24 10:11:22;;;;;;;;;;;;;;;16.49;49.18;100961.25;4995571;28;1084;-52
2023/03/24 10:13:55;;;;;;;;;;;;;;;18.02;47.10;100965.28;4996581;28;1070;-51
2023/03/24 10:16:22;;;;;;;;;;;;;;;18.26;46.68;100957.22;5027323;28;1016;-52
2023/03/24 10:18:54;;;;;;;;;;;;;;;17.06;48.68;100968.56;4996499;28;1048;-53
2023/03/24 10:21:21;;;;;;;;;;;;;;;16.65;48.34;100957.47;4996330;28;1095;-51
2023/03/24 10:24:05;;;;;;;;;;;;;;;17.36;48.60;100963.38;4995838;28;894;-51
2023/03/24 10:26:49;;;;;;;;;;;;;;;16.71;48.85;100964.59;4990677;28;1066;-52
2023/03/24 10:29:23;;;;;;;;;;;;;;;16.48;48.02;100962.31;4997150;28;1189;-54
2023/03/24 10:32:02;;;;;;;;;;;;;;;16.16;48.26;100952.28;4997348;28;1195;-49
2023/03/24 10:34:29;;;;;;;;;;;;;;;16.94;48.68;100957.00;4995834;28;1161;-47
2023/03/24 10:36:57;;;;;;;;;;;;;;;16.52;48.78;100958.78;4999265;28;1906;-45
2023/03/24 10:39:22;;;;;;;;;;;;;;;16.30;48.19;100958.13;4997226;28;1124;-44
2023/03/24 10:41:48;;;;;;;;;;;;;;;16.70;48.46;100954.72;4991786;28;1396;-50
2023/03/24 10:44:14;;;;;;;;;;;;;;;16.51;48.70;100959.88;4998374;28;1105;-51
2023/03/24 10:46:43;;;;;;;;;;;;;;;17.73;47.91;100954.03;4999284;28;1053;-45
2023/03/24 10:49:09;;;;;;;;;;;;;;;18.02;47.58;100948.78;4998330;28;1105;-47
2023/03/24 10:51:34;;;;;;;;;;;;;;;16.95;49.37;100944.91;4999089;28;1264;-46
2023/03/24 10:54:15;;;;;;;;;;;;;;;16.69;48.60;100944.84;4998838;28;1156;-48
2023/03/24 10:56:41;;;;;;;;;;;;;;;16.31;48.12;100937.84;4997880;28;1902;-49
2023/03/24 10:59:26;;;;;;;;;;;;;;;17.03;49.12;100930.66;4998627;28;1157;-48
2023/03/24 11:02:10;;;;;;;;;;;;;;;16.56;49.15;100929.72;4999428;28;1096;-48
2023/03/24 11:04:38;;;;;;;;;;;;;;;16.24;48.48;100933.44;4998780;28;1087;-44
2023/03/24 11:07:03;;;;;;;;;;;;;;;17.26;48.65;100933.97;4996039;28;1217;-48
2023/03/24 11:09:29;;;;;;;;;;;;;;;16.71;49.06;100931.66;4998568;28;886;-51
2023/03/24 11:11:57;;;;;;;;;;;;;;;16.30;48.42;100928.78;4998890;28;1067;-49
2023/03/24 11:14:26;;;;;;;;;;;;;;;16.21;47.80;100922.16;4998643;28;1079;-50
2023/03/24 11:16:52;;;;;;;;;;;;;;;16.22;48.04;100929.28;4998628;28;1959;-52
2023/03/24 11:19:21;;;;;;;;;;;;;;;16.50;49.19;100927.22;4998683;28;1051;-48
2023/03/24 11:21:46;;;;;;;;;;;;;;;16.15;48.68;100928.72;4998226;28;1119;-53
2023/03/24 11:24:14;;;;;;;;;;;;;;;16.05;48.08;100919.34;4997447;28;1026;-51
2023/03/24 11:26:40;;;;;;;;;;;;;;;16.80;48.21;100920.16;4998781;28;1112;-55
2023/03/24 11:29:09;;;;;;;;;;;;;;;16.82;48.88;100915.22;4997307;28;1127;-46
2023/03/24 11:31:37;;;;;;;;;;;;;;;16.35;48.60;100917.81;4997725;28;1258;-49
2023/03/24 11:34:08;;;;;;;;;;;;;;;16.12;47.93;100921.00;4997198;28;1405;-49
2023/03/24 11:36:41;;;;;;;;;;;;;;;16.31;48.48;100913.13;4990532;28;1910;-49
2023/03/24 11:39:17;;;;;;;;;;;;;;;16.65;49.07;100915.44;4995704;28;1148;-49
2023/03/24 11:41:58;;;;;;;;;;;;;;;16.23;48.60;100909.00;4997225;28;1110;-51
2023/03/24 11:44:24;;;;;;;;;;;;;;;16.68;48.66;100910.25;4998024;28;1014;-51
2023/03/24 11:46:54;;;;;;;;;;;;;;;16.48;48.85;100910.16;4996875;28;1236;-50
2023/03/24 11:49:21;;;;;;;;;;;;;;;16.07;48.71;100906.19;4997509;28;1129;-52
2023/03/24 11:51:48;;;;;;;;;;;;;;;16.52;48.69;100908.53;4997123;28;1183;-50
2023/03/24 11:54:14;;;;;;;;;;;;;;;16.68;49.03;100903.94;4996758;28;1076;-49
2023/03/24 11:56:43;;;;;;;;;;;;;;;16.29;48.52;100896.13;4996853;28;1970;-52
2023/03/24 11:59:25;;;;;;;;;;;;;;;16.08;48.12;100902.34;4996750;28;1113;-54
2023/03/24 12:01:54;;;;;;;;;;;;;;;17.19;47.92;100897.69;4995506;28;1470;-50
2023/03/24 12:04:29;;;;;;;;;;;;;;;16.41;48.94;100891.19;4995143;28;1594;-48
2023/03/24 12:06:55;;;;;;;;;;;;;;;17.07;48.58;100898.78;4997652;28;1109;-48
2023/03/24 12:09:21;;;;;;;;;;;;;;;16.66;48.90;100897.88;4998198;28;1033;-47
2023/03/24 12:11:49;;;;;;;;;;;;;;;16.25;48.61;100896.63;4997738;28;1212;-49
2023/03/24 12:14:17;;;;;;;;;;;;;;;17.16;48.15;100898.25;4998035;28;1072;-53
2023/03/24 12:16:49;;;;;;;;;;;;;;;16.49;48.59;100898.09;4996464;28;1910;-51
2023/03/24 12:19:15;;;;;;;;;;;;;;;16.17;48.37;100891.69;4997102;28;1073;-52
2023/03/24 12:21:56;;;;;;;;;;;;;;;16.03;47.74;100888.63;4997767;28;1048;-53
2023/03/24 12:24:25;;;;;;;;;;;;;;;17.14;47.96;100886.69;4994078;28;1308;-52
2023/03/24 12:26:51;;;;;;;;;;;;;;;16.36;48.80;100885.72;4997009;28;994;-51
2023/03/24 12:29:20;;;;;;;;;;;;;;;16.76;48.69;100881.44;4997386;28;1212;-52
2023/03/24 12:32:01;;;;;;;;;;;;;;;16.70;48.89;100880.56;4997356;28;1115;-53
2023/03/24 12:34:45;;;;;;;;;;;;;;;16.26;48.66;100875.53;4997659;28;1040;-51
2023/03/24 12:37:10;;;;;;;;;;;;;;;17.20;48.19;100866.38;4997080;28;1931;-52
2023/03/24 12:39:41;;;;;;;;;;;;;;;16.63;49.10;100863.53;4997087;28;1315;-48
2023/03/24 12:42:11;;;;;;;;;;;;;;;16.28;48.37;100870.59;4983897;28;1048;-52
2023/03/24 12:44:45;;;;;;;;;;;;;;;16.72;48.69;100861.91;4988125;28;1414;-51
2023/03/24 12:47:24;;;;;;;;;;;;;;;16.72;48.71;100867.41;4997126;28;1129;-49
2023/03/24 12:50:04;;;;;;;;;;;;;;;16.24;48.57;100866.72;4995922;28;1085;-46
2023/03/24 12:52:29;;;;;;;;;;;;;;;17.15;48.34;100863.63;4996419;28;982;-47
2023/03/24 12:54:55;;;;;;;;;;;;;;;16.51;48.58;100861.06;4997451;28;1111;-49
2023/03/24 12:57:23;;;;;;;;;;;;;;;16.35;48.75;100857.44;4997299;28;2365;-49
2023/03/24 12:59:59;;;;;;;;;;;;;;;16.82;48.78;100860.28;4995759;28;1105;-50
2023/03/24 13:02:26;;;;;;;;;;;;;;;16.40;49.07;100853.91;4995372;28;1164;-51
2023/03/24 13:04:53;;;;;;;;;;;;;;;18.16;46.89;100851.84;4996149;28;1025;-50